Time;durP1;ratioP1;P1;durP2;ratioP2;P2;SDS_P1;SDS_P2;PMS_P1;PMS_P2;Temp;Humidity;BMP_temperature;BMP_pressure;BME280_temperature;BME280_humidity;BME280_pressure;Samples;Min_cycle;Max_cycle;Signal;HPM_P1;HPM_P2
2021/11/07 00:02:02;;;;;;;21.37;13.10;;;;;;;7.60;100.00;100520.03;7400074;19;20726;-48
2021/11/07 00:04:38;;;;;;;20.30;11.70;;;;;;;7.56;100.00;100518.09;7407025;19;20404;-47
2021/11/07 00:07:16;;;;;;;28.07;15.30;;;;;;;7.57;100.00;100502.78;7403752;19;20768;-50
2021/11/07 00:09:56;;;;;;;26.80;11.97;;;;;;;7.57;100.00;100497.66;7406757;19;20462;-49
2021/11/07 00:12:28;;;;;;;18.47;8.43;;;;;;;7.56;100.00;100497.56;7397850;19;20457;-47
2021/11/07 00:15:00;;;;;;;19.73;11.80;;;;;;;7.58;100.00;100470.28;7406882;19;20409;-45
2021/11/07 00:17:31;;;;;;;15.03;9.40;;;;;;;7.63;100.00;100480.78;7399505;19;20511;-46
2021/11/07 00:20:06;;;;;;;21.27;12.30;;;;;;;7.63;100.00;100485.94;7405057;19;20399;-48
2021/11/07 00:22:45;;;;;;;23.27;15.80;;;;;;;7.65;100.00;100464.63;7401804;19;20434;-45
2021/11/07 00:25:23;;;;;;;21.23;14.50;;;;;;;7.63;100.00;100452.53;7406507;19;20383;-50
2021/11/07 00:27:56;;;;;;;14.30;8.17;;;;;;;7.63;100.00;100452.53;7397547;19;20725;-45
2021/11/07 00:30:37;;;;;;;19.30;9.70;;;;;;;7.63;100.00;100438.00;7405193;19;20463;-49
2021/11/07 00:33:19;;;;;;;15.27;9.47;;;;;;;7.62;100.00;100436.25;7397481;19;20446;-50
2021/11/07 00:38:46;;;;;;;17.53;9.20;;;;;;;7.61;100.00;100413.94;7401020;19;20427;-50
2021/11/07 00:41:24;;;;;;;17.80;10.03;;;;;;;7.60;100.00;100406.16;7401648;19;20394;-50
2021/11/07 00:44:02;;;;;;;18.67;10.10;;;;;;;7.57;100.00;100394.94;7394550;19;20498;-53
2021/11/07 00:46:40;;;;;;;21.30;9.17;;;;;;;7.55;100.00;100391.41;7402001;19;20386;-49
2021/11/07 00:49:13;;;;;;;21.80;11.13;;;;;;;7.56;100.00;100388.06;7400896;19;20414;-47
2021/11/07 00:51:55;;;;;;;19.63;9.70;;;;;;;7.55;100.00;100380.28;7394980;19;20400;-52
2021/11/07 00:54:29;;;;;;;21.27;13.37;;;;;;;7.54;100.00;100371.69;7399493;19;20401;-46
2021/11/07 00:57:02;;;;;;;26.10;15.80;;;;;;;7.53;100.00;100364.78;7394521;19;20435;-45
2021/11/07 00:59:37;;;;;;;16.83;11.40;;;;;;;7.53;100.00;100358.75;7401016;19;20398;-45
2021/11/07 01:02:16;;;;;;;22.73;14.13;;;;;;;7.56;100.00;100351.22;7391131;19;20883;-46
2021/11/07 01:04:48;;;;;;;15.83;10.07;;;;;;;7.56;100.00;100354.69;7405897;19;20416;-48
2021/11/07 01:07:20;;;;;;;14.30;8.80;;;;;;;7.56;100.00;100341.84;7394464;19;20421;-45
2021/11/07 01:09:50;;;;;;;13.70;7.70;;;;;;;7.60;100.00;100337.72;7400600;19;20442;-47
2021/11/07 01:12:21;;;;;;;21.27;13.53;;;;;;;7.61;100.00;100320.63;7393189;19;20493;-45
2021/11/07 01:14:51;;;;;;;24.13;9.33;;;;;;;7.64;100.00;100334.47;7399408;19;20395;-44
2021/11/07 01:17:23;;;;;;;15.20;10.70;;;;;;;7.66;100.00;100325.19;7393405;19;20498;-45
2021/11/07 01:19:55;;;;;;;21.43;13.30;;;;;;;7.72;100.00;100333.94;7399891;19;21008;-47
2021/11/07 01:22:33;;;;;;;13.30;8.37;;;;;;;7.72;100.00;100319.44;7395033;19;20702;-51
2021/11/07 01:25:03;;;;;;;16.43;8.80;;;;;;;7.69;100.00;100309.00;7400869;19;20405;-47
2021/11/07 01:27:36;;;;;;;16.27;10.83;;;;;;;7.69;100.00;100317.59;7393319;19;20414;-49
2021/11/07 01:30:10;;;;;;;15.07;10.70;;;;;;;7.72;100.00;100304.03;7399969;19;20396;-47
2021/11/07 01:32:46;;;;;;;15.70;8.97;;;;;;;7.73;100.00;100304.94;7392178;19;20689;-45
2021/11/07 01:35:20;;;;;;;17.10;9.53;;;;;;;7.78;100.00;100308.56;7398812;19;20442;-45
2021/11/07 01:37:58;;;;;;;17.17;9.63;;;;;;;7.81;100.00;100293.31;7398646;19;20445;-48
2021/11/07 01:40:30;;;;;;;17.67;11.10;;;;;;;7.82;100.00;100292.50;7399328;19;20403;-46
2021/11/07 01:43:01;;;;;;;15.80;8.97;;;;;;;7.81;100.00;100277.88;7392998;19;20866;-46
2021/11/07 01:45:35;;;;;;;13.37;7.40;;;;;;;7.84;100.00;100268.63;7400248;19;20387;-48
2021/11/07 01:48:10;;;;;;;14.97;7.83;;;;;;;7.88;100.00;100250.78;7392619;19;20895;-46
2021/11/07 01:50:44;;;;;;;17.73;10.30;;;;;;;7.89;100.00;100256.00;7399278;19;20457;-46
2021/11/07 01:53:21;;;;;;;10.43;7.10;;;;;;;7.82;100.00;100259.09;7392477;19;20401;-50
2021/11/07 01:55:52;;;;;;;16.50;12.30;;;;;;;7.77;100.00;100252.88;7399805;19;20857;-47
2021/11/07 01:58:21;;;;;;;10.40;6.70;;;;;;;7.76;100.00;100246.88;7392162;19;20762;-44
2021/11/07 02:00:52;;;;;;;15.87;9.87;;;;;;;7.79;100.00;100243.56;7399051;19;20394;-44
2021/11/07 02:03:25;;;;;;;16.27;10.50;;;;;;;7.77;100.00;100245.16;7392514;19;20410;-44
2021/11/07 02:05:59;;;;;;;17.50;10.90;;;;;;;7.80;100.00;100229.91;7400031;19;20419;-47
2021/11/07 02:08:29;;;;;;;13.30;8.80;;;;;;;7.79;100.00;100241.00;7388187;19;20659;-45
2021/11/07 02:11:00;;;;;;;15.97;9.40;;;;;;;7.79;100.00;100235.84;7395550;19;20398;-45
2021/11/07 02:13:30;;;;;;;14.10;8.60;;;;;;;7.81;100.00;100221.38;7386584;19;20705;-45
2021/11/07 02:16:00;;;;;;;13.73;8.90;;;;;;;7.79;100.00;100217.88;7395861;19;20398;-49
2021/11/07 02:18:32;;;;;;;13.27;7.27;;;;;;;7.80;100.00;100220.50;7388393;19;20434;-45
2021/11/07 02:21:05;;;;;;;16.20;9.97;;;;;;;7.83;100.00;100209.47;7395441;19;20383;-46
2021/11/07 02:23:36;;;;;;;17.90;10.60;;;;;;;7.81;100.00;100193.13;7388259;19;20430;-45
2021/11/07 02:26:08;;;;;;;12.20;7.60;;;;;;;7.82;100.00;100188.06;7397813;19;20383;-44
2021/11/07 02:28:39;;;;;;;12.87;8.10;;;;;;;7.87;100.00;100195.09;7381924;19;20465;-44
2021/11/07 02:31:10;;;;;;;16.17;11.87;;;;;;;7.90;100.00;100180.69;7398283;19;20474;-45
2021/11/07 02:33:40;;;;;;;17.27;11.57;;;;;;;7.91;100.00;100186.72;7391566;19;20413;-45
2021/11/07 02:36:14;;;;;;;12.30;8.03;;;;;;;7.93;100.00;100156.81;7398877;19;20397;-45
2021/11/07 02:38:44;;;;;;;17.93;8.97;;;;;;;7.94;100.00;100169.72;7391158;19;20434;-46
2021/11/07 02:41:15;;;;;;;15.10;10.57;;;;;;;7.99;100.00;100158.78;7398104;19;20386;-47
2021/11/07 02:43:49;;;;;;;12.03;8.50;;;;;;;7.99;100.00;100151.09;7393804;19;20502;-45
2021/11/07 02:46:20;;;;;;;12.67;8.67;;;;;;;8.01;100.00;100157.16;7398434;19;20382;-46
2021/11/07 02:48:52;;;;;;;10.90;7.67;;;;;;;8.02;100.00;100162.38;7392496;19;20443;-47
2021/11/07 02:51:30;;;;;;;10.60;6.63;;;;;;;8.06;100.00;100135.97;7398439;19;20697;-47
2021/11/07 02:54:00;;;;;;;14.50;8.10;;;;;;;8.09;100.00;100136.13;7393514;19;20414;-45
2021/11/07 02:56:30;;;;;;;12.37;10.00;;;;;;;8.13;100.00;100131.97;7397799;19;20401;-51
2021/11/07 02:59:00;;;;;;;14.43;8.67;;;;;;;8.16;100.00;100131.22;7393349;19;20708;-50
2021/11/07 03:01:31;;;;;;;11.40;7.57;;;;;;;8.18;100.00;100145.00;7398125;19;20639;-46
2021/11/07 03:04:06;;;;;;;11.03;7.03;;;;;;;8.19;100.00;100131.34;7390910;19;20723;-48
2021/11/07 03:06:40;;;;;;;14.47;8.70;;;;;;;8.20;100.00;100127.97;7397244;19;20388;-48
2021/11/07 03:09:14;;;;;;;13.03;8.07;;;;;;;8.15;100.00;100130.34;7399736;19;20435;-48
2021/11/07 03:11:44;;;;;;;16.97;7.37;;;;;;;8.11;100.00;100125.91;7390623;19;20401;-49
2021/11/07 03:14:16;;;;;;;15.23;9.20;;;;;;;8.06;100.00;100123.13;7396845;19;20463;-47
2021/11/07 03:16:47;;;;;;;12.90;9.10;;;;;;;8.07;100.00;100121.44;7390565;19;20420;-48
2021/11/07 03:19:17;;;;;;;10.73;6.80;;;;;;;8.04;100.00;100121.28;7396442;19;20677;-45
2021/11/07 03:21:50;;;;;;;9.43;6.40;;;;;;;8.05;100.00;100125.66;7393763;19;20462;-50
2021/11/07 03:24:20;;;;;;;10.00;7.30;;;;;;;8.01;100.00;100132.34;7398659;19;20653;-51
2021/11/07 03:26:49;;;;;;;21.20;9.57;;;;;;;7.97;100.00;100121.06;7396314;19;20465;-46
2021/11/07 03:29:21;;;;;;;12.70;7.57;;;;;;;7.92;100.00;100126.81;7404153;19;20912;-46
2021/11/07 03:31:53;;;;;;;9.27;6.20;;;;;;;7.96;100.00;100124.44;7399716;19;20406;-46
2021/11/07 03:34:29;;;;;;;10.80;6.63;;;;;;;7.97;100.00;100131.34;7403570;19;20454;-49
2021/11/07 03:37:07;;;;;;;10.50;6.53;;;;;;;7.97;100.00;100133.91;7401286;19;20522;-49
2021/11/07 03:39:39;;;;;;;8.80;5.83;;;;;;;7.93;100.00;100134.59;7403871;19;20925;-50
2021/11/07 03:42:11;;;;;;;11.30;7.97;;;;;;;7.93;100.00;100134.59;7396713;19;20406;-50
2021/11/07 03:44:41;;;;;;;12.30;7.80;;;;;;;7.96;100.00;100132.13;7404218;19;20387;-49
2021/11/07 03:47:12;;;;;;;9.70;4.97;;;;;;;7.96;100.00;100126.13;7396497;19;20426;-47
2021/11/07 03:49:43;;;;;;;13.07;9.07;;;;;;;7.99;100.00;100122.81;7403343;19;20415;-51
2021/11/07 03:52:15;;;;;;;10.10;6.77;;;;;;;7.95;100.00;100117.53;7400425;19;20487;-52
2021/11/07 03:54:45;;;;;;;15.20;9.13;;;;;;;7.94;100.00;100118.34;7403204;19;20718;-50
2021/11/07 03:57:15;;;;;;;10.03;7.20;;;;;;;7.97;100.00;100121.06;7396164;19;20415;-46
2021/11/07 03:59:49;;;;;;;14.10;10.03;;;;;;;7.99;100.00;100117.69;7403107;19;20376;-53
2021/11/07 04:02:19;;;;;;;9.10;6.57;;;;;;;7.97;100.00;100122.75;7399847;19;20428;-46
2021/11/07 04:04:49;;;;;;;7.87;5.10;;;;;;;7.99;100.00;100112.53;7403549;19;20469;-46
2021/11/07 04:07:21;;;;;;;6.90;5.07;;;;;;;8.00;100.00;100107.44;7398902;19;20503;-45
2021/11/07 04:09:50;;;;;;;6.67;4.83;;;;;;;8.02;100.00;100099.81;7403034;19;20909;-49
2021/11/07 04:12:20;;;;;;;9.97;4.40;;;;;;;8.04;100.00;100104.19;7395286;19;20499;-50
2021/11/07 04:14:49;;;;;;;6.33;4.17;;;;;;;8.04;100.00;100090.47;7402625;19;20453;-51
2021/11/07 04:17:19;;;;;;;7.20;6.30;;;;;;;8.04;100.00;100087.91;7394949;19;20477;-51
2021/11/07 04:19:49;;;;;;;9.30;6.97;;;;;;;8.02;100.00;100084.41;7401968;19;20390;-49
2021/11/07 04:22:21;;;;;;;9.43;7.20;;;;;;;8.03;100.00;100068.16;7399237;19;20407;-48
2021/11/07 04:24:50;;;;;;;8.40;6.40;;;;;;;7.99;100.00;100071.44;7403046;19;20379;-52
2021/11/07 04:27:21;;;;;;;7.90;4.60;;;;;;;8.04;100.00;100067.34;7398995;19;21153;-52
2021/11/07 04:29:50;;;;;;;4.57;3.63;;;;;;;8.04;100.00;100069.91;7402340;19;20493;-45
2021/11/07 04:32:20;;;;;;;7.53;3.40;;;;;;;8.08;100.00;100066.66;7398653;19;20411;-45
2021/11/07 04:34:49;;;;;;;9.70;4.27;;;;;;;8.10;100.00;100088.16;7402384;19;20463;-46
2021/11/07 04:37:22;;;;;;;5.53;2.87;;;;;;;8.10;100.00;100065.03;7395578;19;21141;-46
2021/11/07 04:39:52;;;;;;;4.80;2.17;;;;;;;8.10;100.00;100088.16;7401859;19;20388;-46
2021/11/07 04:42:22;;;;;;;2.90;2.23;;;;;;;8.15;100.00;100078.09;7394621;19;20422;-45
2021/11/07 04:44:52;;;;;;;7.53;3.20;;;;;;;8.16;100.00;100072.97;7401902;19;20495;-45
2021/11/07 04:47:21;;;;;;;4.33;2.70;;;;;;;8.12;100.00;100055.72;7394965;19;20896;-49
2021/11/07 04:49:53;;;;;;;17.30;3.10;;;;;;;8.12;100.00;100058.28;7401517;19;20400;-45
2021/11/07 04:52:26;;;;;;;4.03;2.40;;;;;;;8.11;100.00;100059.97;7398516;19;20422;-46
2021/11/07 04:54:55;;;;;;;9.00;2.53;;;;;;;8.16;100.00;100059.28;7401432;19;20717;-46
2021/11/07 04:57:25;;;;;;;6.47;2.70;;;;;;;8.16;100.00;100078.13;7394695;19;20436;-45
2021/11/07 04:59:58;;;;;;;4.40;2.00;;;;;;;8.20;100.00;100076.59;7404217;19;20400;-45
2021/11/07 05:02:27;;;;;;;12.73;2.63;;;;;;;8.20;100.00;100067.16;7395984;19;20466;-46
2021/11/07 05:04:57;;;;;;;8.07;2.50;;;;;;;8.19;100.00;100064.53;7401181;19;20895;-45
2021/11/07 05:07:29;;;;;;;6.77;2.30;;;;;;;8.22;100.00;100062.94;7398060;19;20447;-46
2021/11/07 05:09:58;;;;;;;6.37;1.93;;;;;;;8.20;100.00;100058.59;7400877;19;20380;-46
2021/11/07 05:12:29;;;;;;;8.43;1.40;;;;;;;8.22;100.00;100068.09;7393478;19;20746;-47
2021/11/07 05:14:59;;;;;;;7.07;1.53;;;;;;;8.23;100.00;100054.44;7400821;19;20398;-45
2021/11/07 05:17:29;;;;;;;6.43;1.90;;;;;;;8.24;100.00;100043.34;7397761;19;20498;-47
2021/11/07 05:19:59;;;;;;;11.47;2.40;;;;;;;8.22;100.00;100050.09;7400167;19;20451;-46
2021/11/07 05:22:31;;;;;;;26.03;2.27;;;;;;;8.15;100.00;100057.53;7395876;19;20422;-46
2021/11/07 05:25:00;;;;;;;13.10;2.80;;;;;;;8.14;100.00;100061.78;7400881;19;20451;-45
2021/11/07 05:27:30;;;;;;;9.60;1.60;;;;;;;8.16;100.00;100060.13;7393251;19;20426;-45
2021/11/07 05:30:00;;;;;;;8.70;2.20;;;;;;;8.19;100.00;100062.84;7400017;19;20399;-45
2021/11/07 05:32:29;;;;;;;3.07;1.17;;;;;;;8.16;100.00;100059.28;7393346;19;20418;-45
2021/11/07 05:34:59;;;;;;;10.07;2.47;;;;;;;8.14;100.00;100066.06;7400131;19;20395;-47
2021/11/07 05:37:31;;;;;;;5.53;2.27;;;;;;;8.09;100.00;100076.13;7395866;19;20413;-45
2021/11/07 05:40:00;;;;;;;13.63;2.40;;;;;;;8.06;100.00;100083.72;7399534;19;20402;-46
2021/11/07 05:42:29;;;;;;;8.63;2.03;;;;;;;8.07;100.00;100075.19;7395143;19;20498;-48
2021/11/07 05:45:00;;;;;;;8.07;2.40;;;;;;;8.05;100.00;100076.84;7399965;19;20388;-46
2021/11/07 05:47:30;;;;;;;7.47;2.00;;;;;;;7.95;100.00;100076.44;7391252;19;20417;-45
2021/11/07 05:49:59;;;;;;;10.50;3.07;;;;;;;7.97;100.00;100084.22;7399464;19;20404;-46
2021/11/07 05:52:32;;;;;;;14.43;1.90;;;;;;;7.99;100.00;100081.72;7395920;19;20399;-46
2021/11/07 05:55:01;;;;;;;9.20;2.00;;;;;;;7.92;100.00;100090.84;7399781;19;20398;-48
2021/11/07 05:57:31;;;;;;;18.23;2.67;;;;;;;7.90;100.00;100090.78;7391880;19;20928;-45
2021/11/07 06:00:00;;;;;;;9.83;2.40;;;;;;;7.89;100.00;100083.88;7399204;19;20394;-45
2021/11/07 06:02:30;;;;;;;15.97;3.43;;;;;;;7.93;100.00;100088.34;7392274;19;20428;-45
2021/11/07 06:04:59;;;;;;;18.77;2.90;;;;;;;7.96;100.00;100098.75;7399347;19;20858;-48
2021/11/07 06:07:32;;;;;;;13.33;2.67;;;;;;;7.97;100.00;100097.94;7396131;19;20414;-46
2021/11/07 06:10:01;;;;;;;10.73;2.10;;;;;;;7.94;100.00;100096.91;7399219;19;20390;-46
2021/11/07 06:12:31;;;;;;;21.50;3.30;;;;;;;7.93;100.00;100098.63;7392359;19;20429;-45
2021/11/07 06:15:01;;;;;;;12.63;3.10;;;;;;;7.94;100.00;100097.81;7399214;19;20863;-49
2021/11/07 06:17:30;;;;;;;11.40;2.77;;;;;;;7.97;100.00;100104.75;7391131;19;20494;-48
2021/11/07 06:19:59;;;;;;;21.40;4.53;;;;;;;7.94;100.00;100094.34;7398315;19;20642;-46
2021/11/07 06:22:32;;;;;;;17.40;2.80;;;;;;;7.89;100.00;100107.00;7395453;19;20758;-47
2021/11/07 06:25:01;;;;;;;15.93;2.90;;;;;;;7.92;100.00;100107.16;7398906;19;20463;-47
2021/11/07 06:27:31;;;;;;;15.67;3.00;;;;;;;7.93;100.00;100119.19;7391716;19;20421;-47
2021/11/07 06:30:01;;;;;;;11.07;2.97;;;;;;;7.97;100.00;100110.78;7400347;19;20474;-46
2021/11/07 06:32:30;;;;;;;14.57;3.90;;;;;;;7.95;100.00;100102.13;7391648;19;20482;-45
2021/11/07 06:35:00;;;;;;;17.90;3.20;;;;;;;7.97;100.00;100110.78;7399443;19;20467;-48
2021/11/07 06:37:32;;;;;;;15.67;3.00;;;;;;;7.91;100.00;100102.84;7394537;19;20416;-45
2021/11/07 06:40:01;;;;;;;13.67;4.13;;;;;;;7.89;100.00;100117.28;7398293;19;20944;-46
2021/11/07 06:42:31;;;;;;;13.93;2.93;;;;;;;7.99;100.00;100110.84;7391368;19;20482;-47
2021/11/07 06:45:00;;;;;;;12.57;2.47;;;;;;;7.99;100.00;100122.81;7398322;19;20444;-49
2021/11/07 06:47:30;;;;;;;6.33;2.30;;;;;;;8.03;100.00;100119.53;7390989;19;20429;-45
2021/11/07 06:49:59;;;;;;;13.07;3.40;;;;;;;8.05;100.00;100128.22;7397930;19;20376;-51
2021/11/07 06:52:31;;;;;;;31.23;4.70;;;;;;;8.07;100.00;100121.44;7393150;19;20915;-47
2021/11/07 06:55:01;;;;;;;19.67;3.30;;;;;;;8.03;100.00;100122.13;7397906;19;20395;-50
2021/11/07 06:57:31;;;;;;;11.53;2.70;;;;;;;8.07;100.00;100131.72;7393691;19;20772;-45
2021/11/07 07:00:00;;;;;;;6.10;1.93;;;;;;;8.10;100.00;100131.84;7401410;19;20386;-45
2021/11/07 07:02:30;;;;;;;21.53;2.63;;;;;;;8.16;100.00;100137.22;7399295;19;20743;-45
2021/11/07 07:04:59;;;;;;;9.10;2.43;;;;;;;8.21;100.00;100140.88;7405294;19;20395;-46
2021/11/07 07:07:34;;;;;;;12.80;3.13;;;;;;;8.06;100.00;100171.06;7401828;19;20487;-46
2021/11/07 07:10:06;;;;;;;16.57;2.80;;;;;;;7.70;100.00;100167.84;7405006;19;20394;-47
2021/11/07 07:12:41;;;;;;;19.03;3.10;;;;;;;7.52;100.00;100177.31;7398041;19;20902;-47
2021/11/07 07:15:14;;;;;;;13.57;2.40;;;;;;;7.21;100.00;100166.53;7404893;19;20465;-46
2021/11/07 07:17:52;;;;;;;9.53;2.00;;;;;;;6.97;100.00;100163.72;7397618;19;20431;-46
2021/11/07 07:20:38;;;;;;;14.33;1.73;;;;;;;6.86;100.00;100164.09;7404159;19;20877;-49
2021/11/07 07:28:46;;;;;;;9.23;1.73;;;;;;;6.74;100.00;100154.13;7396241;19;20417;-48
2021/11/07 07:31:32;;;;;;;14.07;3.00;;;;;;;6.77;100.00;100145.69;7404202;19;20390;-52
2021/11/07 07:34:06;;;;;;;18.10;3.33;;;;;;;6.76;100.00;100159.31;7397378;19;20876;-49
2021/11/07 07:36:35;;;;;;;16.67;2.77;;;;;;;6.77;100.00;100165.34;7404348;19;20394;-52
2021/11/07 07:39:08;;;;;;;14.80;3.20;;;;;;;6.79;100.00;100156.00;7403078;19;20486;-48
2021/11/07 07:41:38;;;;;;;14.23;2.50;;;;;;;6.71;100.00;100173.59;7404373;19;20414;-49
2021/11/07 07:44:09;;;;;;;13.50;3.40;;;;;;;6.69;100.00;100177.78;7404049;19;20412;-52
2021/11/07 07:46:40;;;;;;;19.80;3.73;;;;;;;6.75;100.00;100162.69;7396968;19;20398;-50
2021/11/07 07:49:10;;;;;;;14.30;2.30;;;;;;;6.74;100.00;100158.38;7402780;19;20662;-53
2021/11/07 07:51:40;;;;;;;8.60;2.07;;;;;;;6.72;100.00;100147.19;7400655;19;20390;-52
2021/11/07 07:54:12;;;;;;;14.33;2.07;;;;;;;6.66;100.00;100140.03;7403557;19;20735;-47
2021/11/07 07:56:42;;;;;;;12.50;2.43;;;;;;;6.67;100.00;100143.50;7396614;19;20403;-53
2021/11/07 07:59:11;;;;;;;10.30;1.73;;;;;;;6.62;100.00;100141.59;7402441;19;20399;-48
2021/11/07 08:01:41;;;;;;;13.80;2.80;;;;;;;6.66;100.00;100144.31;7396449;19;20401;-52
2021/11/07 08:04:10;;;;;;;12.63;2.03;;;;;;;6.63;100.00;100145.03;7403302;19;20463;-47
2021/11/07 08:06:40;;;;;;;16.13;3.23;;;;;;;6.67;100.00;100156.31;7400346;19;20460;-47
2021/11/07 08:09:09;;;;;;;8.70;2.10;;;;;;;6.75;100.00;100153.31;7402151;19;20387;-50
2021/11/07 08:11:42;;;;;;;20.60;4.40;;;;;;;6.84;100.00;100145.19;7393191;19;20846;-48
2021/11/07 08:14:11;;;;;;;14.13;3.03;;;;;;;6.84;100.00;100147.75;7402620;19;20382;-48
2021/11/07 08:16:41;;;;;;;14.00;2.60;;;;;;;6.86;100.00;100153.81;7395688;19;20388;-51
2021/11/07 08:19:10;;;;;;;15.03;2.80;;;;;;;6.99;100.00;100146.72;7402191;19;20393;-52
2021/11/07 08:21:41;;;;;;;20.10;3.03;;;;;;;7.04;100.00;100147.81;7399334;19;20396;-46
2021/11/07 08:24:12;;;;;;;10.77;1.97;;;;;;;7.12;100.00;100151.59;7402651;19;20404;-49
2021/11/07 08:26:44;;;;;;;14.53;4.10;;;;;;;7.15;100.00;100167.16;7395509;19;20387;-49
2021/11/07 08:29:16;;;;;;;28.90;3.10;;;;;;;7.20;100.00;100161.31;7401133;19;20464;-46
2021/11/07 08:31:50;;;;;;;6.60;1.43;;;;;;;7.33;100.00;100155.94;7395381;19;20391;-51
2021/11/07 08:34:22;;;;;;;20.13;2.33;;;;;;;7.49;100.00;100154.06;7402458;19;20401;-47
2021/11/07 08:36:57;;;;;;;11.03;2.17;;;;;;;7.67;100.00;100142.06;7399652;19;20386;-46
2021/11/07 08:39:30;;;;;;;25.50;4.90;;;;;;;7.83;100.00;100152.97;7401606;19;20404;-49
2021/11/07 08:42:04;;;;;;;14.37;2.70;;;;;;;7.75;100.00;100223.69;7396102;19;20410;-50
2021/11/07 09:01:13;;;;;;;7.47;1.60;;;;;;;5.17;100.00;100215.28;7401106;19;20436;-50
2021/11/07 09:03:51;;;;;;;6.20;1.43;;;;;;;5.20;100.00;100215.47;7396414;19;20510;-51
2021/11/07 09:06:37;;;;;;;9.00;2.50;;;;;;;5.39;100.00;100211.34;7404074;19;20421;-53
2021/11/07 09:09:09;;;;;;;8.37;1.90;;;;;;;5.54;100.00;100204.50;7400030;19;20417;-54
2021/11/07 09:11:40;;;;;;;8.27;1.80;;;;;;;5.58;100.00;100186.75;7394350;19;20398;-50
2021/11/07 09:14:12;;;;;;;9.30;2.10;;;;;;;5.68;100.00;100194.09;7400858;19;20398;-54
2021/11/07 09:16:42;;;;;;;13.67;2.93;;;;;;;5.76;100.00;100191.94;7394116;19;20386;-49
2021/11/07 09:19:15;;;;;;;3.73;1.07;;;;;;;5.88;100.00;100196.81;7398070;19;20395;-50
2021/11/07 09:21:47;;;;;;;5.77;1.27;;;;;;;5.88;100.00;100158.41;7396555;19;20391;-50
2021/11/07 09:24:25;;;;;;;9.93;1.90;;;;;;;5.76;100.00;100190.28;7400714;19;20887;-48
2021/11/07 09:26:55;;;;;;;7.53;2.07;;;;;;;5.75;100.00;100179.94;7393808;19;20833;-53
2021/11/07 09:29:32;;;;;;;10.33;2.03;;;;;;;5.42;100.00;100180.81;7399386;19;20392;-49
2021/11/07 09:34:52;;;;;;;6.90;2.23;;;;;;;5.16;100.00;100175.16;7401029;19;20388;-50
2021/11/07 09:37:31;;;;;;;10.80;2.23;;;;;;;5.23;100.00;100187.50;7395935;19;20431;-51
2021/11/07 09:40:03;;;;;;;7.67;1.60;;;;;;;5.36;100.00;100185.59;7399780;19;20654;-53
2021/11/07 09:42:53;;;;;;;26.97;5.60;;;;;;;5.65;100.00;100199.06;7395857;19;20888;-50
2021/11/07 09:45:32;;;;;;;17.53;5.00;;;;;;;6.03;100.00;100187.41;7400067;19;20865;-48
2021/11/07 09:48:07;;;;;;;25.50;8.40;;;;;;;6.27;100.00;100186.91;7392717;19;21151;-50
2021/11/07 09:50:37;;;;;;;21.13;5.20;;;;;;;6.40;100.00;100180.69;7399674;19;20455;-48
2021/11/07 09:53:08;;;;;;;17.90;4.00;;;;;;;6.45;100.00;100179.22;7393345;19;20460;-50
2021/11/07 09:55:38;;;;;;;27.57;4.63;;;;;;;6.66;100.00;100180.22;7403998;19;20397;-48
2021/11/07 09:58:08;;;;;;;56.77;12.60;;;;;;;6.77;100.00;100179.00;7392104;19;20435;-51
2021/11/07 10:00:42;;;;;;;21.30;4.73;;;;;;;6.86;100.00;100179.47;7399429;19;20389;-48
2021/11/07 10:03:14;;;;;;;19.23;3.80;;;;;;;7.02;100.00;100169.91;7392439;19;20433;-48
2021/11/07 10:05:48;;;;;;;20.57;5.00;;;;;;;7.13;100.00;100173.88;7399804;19;20458;-50
2021/11/07 10:08:19;;;;;;;28.63;8.57;;;;;;;7.31;100.00;100167.84;7394264;19;20428;-52
2021/11/07 10:10:54;;;;;;;23.23;4.90;;;;;;;7.40;100.00;100160.53;7398841;19;20644;-51
2021/11/07 10:13:26;;;;;;;19.10;4.00;;;;;;;7.39;100.00;100169.03;7394857;19;20934;-52
2021/11/07 10:16:07;;;;;;;23.67;3.47;;;;;;;7.47;100.00;100160.81;7399476;19;20393;-49
2021/11/07 10:18:41;;;;;;;33.37;4.87;;;;;;;7.51;100.00;100158.47;7393409;19;20443;-52
2021/11/07 10:21:24;;;;;;;39.87;9.63;;;;;;;7.57;100.00;100150.16;7398421;19;20472;-50
2021/11/07 10:24:04;;;;;;;31.83;7.63;;;;;;;7.57;100.00;100147.59;7392525;19;20734;-49
2021/11/07 10:26:37;;;;;;;35.27;4.00;;;;;;;7.45;100.00;100165.00;7399429;19;20398;-50
2021/11/07 10:29:09;;;;;;;21.50;4.93;;;;;;;7.42;100.00;100161.50;7398084;19;20462;-54
2021/11/07 10:31:42;;;;;;;24.07;6.27;;;;;;;7.37;100.00;100147.56;7395715;19;20411;-50
2021/11/07 10:34:32;;;;;;;13.20;2.13;;;;;;;7.26;100.00;100167.63;7407575;19;20398;-50
2021/11/07 10:46:13;;;;;;;20.73;2.93;;;;;;;7.23;100.00;100172.59;7409525;19;20391;-53
2021/11/07 10:54:20;;;;;;;23.83;3.57;;;;;;;7.14;100.00;100195.28;7409531;19;20443;-53
2021/11/07 10:57:17;;;;;;;12.53;2.60;;;;;;;7.11;100.00;100185.75;7402649;19;20453;-53
2021/11/07 11:00:09;;;;;;;18.90;2.97;;;;;;;7.07;100.00;100182.97;7406573;19;20416;-49
2021/11/07 11:02:40;;;;;;;14.40;3.10;;;;;;;7.09;100.00;100176.22;7401921;19;20536;-53
2021/11/07 11:05:12;;;;;;;21.20;3.23;;;;;;;7.09;100.00;100183.91;7409010;19;20406;-53
2021/11/07 11:07:53;;;;;;;16.60;2.47;;;;;;;7.06;100.00;100178.63;7405197;19;20941;-50
2021/11/07 11:10:27;;;;;;;13.43;3.40;;;;;;;7.03;100.00;100181.97;7408688;19;20468;-52
2021/11/07 11:16:17;;;;;;;23.30;4.87;;;;;;;7.39;100.00;100187.00;7408530;19;20411;-48
2021/11/07 11:24:37;;;;;;;14.43;2.80;;;;;;;7.46;100.00;100197.56;7407905;19;20467;-48
2021/11/07 11:27:27;;;;;;;12.53;3.00;;;;;;;7.32;100.00;100210.66;7401011;19;20435;-51
2021/11/07 11:32:52;;;;;;;9.00;2.07;;;;;;;6.85;100.00;100194.78;7399780;19;20455;-49
2021/11/07 11:35:25;;;;;;;6.97;1.80;;;;;;;6.72;100.00;100190.75;7407920;19;20401;-52
2021/11/07 11:38:06;;;;;;;11.30;2.63;;;;;;;6.61;100.00;100183.41;7398225;19;20417;-50
2021/11/07 11:40:45;;;;;;;8.77;2.50;;;;;;;6.47;100.00;100192.13;7401441;19;20389;-49
2021/11/07 11:43:19;;;;;;;10.50;2.00;;;;;;;6.41;100.00;100184.13;7396627;19;20737;-51
2021/11/07 11:45:58;;;;;;;17.43;2.80;;;;;;;6.35;100.00;100185.59;7402476;19;20405;-49
2021/11/07 11:51:40;;;;;;;12.43;2.23;;;;;;;6.30;100.00;100181.91;7402795;19;20397;-48
2021/11/07 11:57:13;;;;;;;14.23;2.30;;;;;;;6.53;100.00;100189.88;7398687;19;20443;-50
2021/11/07 11:59:49;;;;;;;6.00;1.80;;;;;;;6.66;100.00;100186.19;7404848;19;20393;-54
2021/11/07 12:02:28;;;;;;;9.73;1.70;;;;;;;6.74;100.00;100177.22;7395487;19;20555;-50
2021/11/07 12:05:15;;;;;;;14.97;1.90;;;;;;;6.99;100.00;100180.06;7408229;19;20476;-52
2021/11/07 12:07:56;;;;;;;7.20;2.30;;;;;;;7.22;100.00;100180.25;7399836;19;20496;-50
2021/11/07 12:10:34;;;;;;;6.07;2.00;;;;;;;7.49;100.00;100177.19;7402757;19;20393;-50
2021/11/07 12:13:38;;;;;;;8.07;1.70;;;;;;;7.81;100.00;100164.88;7395594;19;20860;-51
2021/11/07 12:16:12;;;;;;;11.90;1.83;;;;;;;8.03;100.00;100161.53;7403236;19;20494;-48
2021/11/07 12:19:09;;;;;;;12.43;1.67;;;;;;;8.23;100.00;100149.53;7395602;19;20417;-49
2021/11/07 12:22:11;;;;;;;10.83;2.23;;;;;;;8.54;100.00;100157.66;7393890;19;20483;-53
2021/11/07 12:24:58;;;;;;;7.10;2.60;;;;;;;8.72;100.00;100164.38;7403016;19;20398;-52
2021/11/07 12:27:30;;;;;;;14.73;3.57;;;;;;;8.59;100.00;100156.16;7395968;19;20495;-48
2021/11/07 12:30:02;;;;;;;21.10;3.33;;;;;;;8.63;100.00;100150.28;7402032;19;20459;-50
2021/11/07 12:32:35;;;;;;;30.23;7.90;;;;;;;8.89;100.00;100144.44;7395226;19;20519;-53
2021/11/07 12:35:16;;;;;;;14.70;3.50;;;;;;;9.11;100.00;100147.81;7407225;19;20396;-50
2021/11/07 12:40:48;;;;;;;26.00;6.73;;;;;;;9.21;100.00;100155.09;7401785;19;20892;-51
2021/11/07 12:43:22;;;;;;;54.83;17.50;;;;;;;8.90;100.00;100164.19;7396923;19;20431;-51
2021/11/07 12:45:53;;;;;;;21.67;5.07;;;;;;;8.63;100.00;100163.16;7405437;19;20398;-47
2021/11/07 12:48:41;;;;;;;22.67;5.27;;;;;;;8.23;100.00;100180.38;7398232;19;20426;-50
2021/11/07 12:51:15;;;;;;;22.40;6.70;;;;;;;7.94;100.00;100185.16;7401709;19;20415;-48